Terminal Aerodrome Forecast
Issued by NWS Wilmington, OH

Current Version | Previous Version | Text Only | Print | Product List | Glossary Off
Versions: 1 2 3 4 5 6 7 8 9 10 11 12 13 14 15 16 17 18 19 20

125
FTUS41 KILN 141136
TAFILN
TAF
KILN 141136Z 1412/1512 11005KT P6SM BKN035
     FM141800 11005KT P6SM FEW035 SCT200
     FM150900 14005KT 3SM -SN OVC025=

USA.gov is the U.S. government's official web portal to all federal, state and local government web resources and services.